Climatologie pour Saint-Brevin les Pins
Jour • Résumé pour juin 21, 2017 Système :  Métrique    Anglais   Mixte
« - 1 jour
+ 1 jour »
Jour Semaine Mois Année Personnalisé
  Maximum : Minimum : Moyenne :
Température sous abri : 23.7 °C 17.2 °C 20 °C
Point de rosée : 19.5 °C 16.6 °C 17.9 °C
Humidité : 98 % 73 % 88 %
Vitesse du vent : 14.5 km/h 0.0 km/h 4.4 km/h
Rafale : 20.9 km/h - -
Direction :- - WSW
Pression : 1015.1 hPa 1013.4 hPa -
Précipitations : 0.0 mm    
Historical Graphs
 
 
Tableau de données pour juin 21, 2017
Heure Tempé Pt rosée Pression Vent Vitesse Rafale Humidité Taux pluie (/hr) Soleil
00:00 18.7 °C 18.2 °C 1014.8 hPa WSW 3.2 km/h 6.4 km/h 97 % 0.0 mm 0 W/m2
00:10 18.6 °C 18.1 °C 1014.8 hPa Calm   8.0 km/h 97 % 0.0 mm 0 W/m2
00:15 18.6 °C 18.2 °C 1014.4 hPa WSW 1.6 km/h 8.0 km/h 98 % 0.0 mm 0 W/m2
00:20 18.6 °C 18.3 °C 1014.8 hPa West 3.2 km/h 8.0 km/h 98 % 0.0 mm 0 W/m2
00:25 18.6 °C 18.2 °C 1014.8 hPa West 1.6 km/h 6.4 km/h 98 % 0.0 mm 0 W/m2
00:30 18.6 °C 18.3 °C 1014.8 hPa Calm   4.8 km/h 98 % 0.0 mm 0 W/m2
00:35 18.6 °C 18.2 °C 1014.8 hPa West 4.8 km/h 8.0 km/h 98 % 0.0 mm 0 W/m2
00:40 18.4 °C 18.1 °C 1014.8 hPa West 1.6 km/h 8.0 km/h 98 % 0.0 mm 0 W/m2
00:45 18.4 °C 18.1 °C 1014.8 hPa WNW 4.8 km/h 8.0 km/h 98 % 0.0 mm 0 W/m2
00:50 18.3 °C 18.0 °C 1014.8 hPa WNW 1.6 km/h 8.0 km/h 98 % 0.0 mm 0 W/m2
00:55 18.3 °C 18.0 °C 1014.8 hPa West 6.4 km/h 6.4 km/h 98 % 0.0 mm 0 W/m2
01:00 18.3 °C 18.0 °C 1014.8 hPa West 3.2 km/h 6.4 km/h 98 % 0.0 mm 0 W/m2
01:05 18.2 °C 17.8 °C 1014.8 hPa Calm   6.4 km/h 98 % 0.0 mm 0 W/m2
01:10 18.2 °C 17.9 °C 1014.8 hPa Calm   8.0 km/h 98 % 0.0 mm 0 W/m2
01:15 18.3 °C 18.0 °C 1014.8 hPa Calm   8.0 km/h 98 % 0.0 mm 0 W/m2
01:20 18.3 °C 18.0 °C 1014.8 hPa Calm   6.4 km/h 98 % 0.0 mm 0 W/m2
01:25 18.3 °C 18.0 °C 1014.8 hPa Calm   6.4 km/h 98 % 0.0 mm 0 W/m2
01:30 18.2 °C 17.8 °C 1014.4 hPa Calm   4.8 km/h 98 % 0.0 mm 0 W/m2
01:35 18.1 °C 17.8 °C 1014.4 hPa Calm   4.8 km/h 98 % 0.0 mm 0 W/m2
01:40 18.1 °C 17.8 °C 1014.4 hPa Calm   3.2 km/h 98 % 0.0 mm 0 W/m2
01:45 18.1 °C 17.8 °C 1014.4 hPa Calm     98 % 0.0 mm 0 W/m2
01:50 18.1 °C 17.8 °C 1014.4 hPa Calm   1.6 km/h 98 % 0.0 mm 0 W/m2
01:55 18.1 °C 17.8 °C 1014.4 hPa Calm   3.2 km/h 98 % 0.0 mm 0 W/m2
02:00 18.2 °C 17.8 °C 1014.1 hPa WSW 4.8 km/h 4.8 km/h 98 % 0.0 mm 0 W/m2
02:05 18.0 °C 17.7 °C 1014.1 hPa Calm   6.4 km/h 98 % 0.0 mm 0 W/m2
02:10 18.0 °C 17.7 °C 1014.1 hPa Calm   6.4 km/h 98 % 0.0 mm 0 W/m2
02:15 17.9 °C 17.6 °C 1014.4 hPa Calm     98 % 0.0 mm 0 W/m2
02:20 17.9 °C 17.6 °C 1014.1 hPa WSW 3.2 km/h 6.4 km/h 98 % 0.0 mm 0 W/m2
02:25 18.0 °C 17.7 °C 1014.1 hPa WSW 3.2 km/h 6.4 km/h 98 % 0.0 mm 0 W/m2
02:30 18.0 °C 17.7 °C 1014.1 hPa WSW 1.6 km/h 4.8 km/h 98 % 0.0 mm 0 W/m2
02:35 18.0 °C 17.7 °C 1014.1 hPa WSW 1.6 km/h 4.8 km/h 98 % 0.0 mm 0 W/m2
02:40 17.9 °C 17.6 °C 1014.1 hPa SW 4.8 km/h 4.8 km/h 98 % 0.0 mm 0 W/m2
02:45 17.8 °C 17.5 °C 1014.1 hPa Calm   6.4 km/h 98 % 0.0 mm 0 W/m2
02:50 17.8 °C 17.5 °C 1014.1 hPa WSW 1.6 km/h 6.4 km/h 98 % 0.0 mm 0 W/m2
02:55 17.8 °C 17.5 °C 1014.1 hPa SW 3.2 km/h 6.4 km/h 98 % 0.0 mm 0 W/m2
03:00 17.8 °C 17.5 °C 1014.1 hPa Calm   6.4 km/h 98 % 0.0 mm 0 W/m2
03:10 17.7 °C 17.4 °C 1014.1 hPa West 3.2 km/h 6.4 km/h 98 % 0.0 mm 0 W/m2
03:15 17.8 °C 17.5 °C 1014.1 hPa Calm   4.8 km/h 98 % 0.0 mm 0 W/m2
03:20 17.7 °C 17.3 °C 1014.1 hPa WSW 3.2 km/h 4.8 km/h 98 % 0.0 mm 0 W/m2
03:25 17.7 °C 17.4 °C 1014.1 hPa South 3.2 km/h 6.4 km/h 98 % 0.0 mm 0 W/m2
03:35 17.6 °C 17.3 °C 1014.1 hPa SW 3.2 km/h 8.0 km/h 98 % 0.0 mm 0 W/m2
03:40 17.5 °C 17.2 °C 1014.1 hPa Calm   6.4 km/h 98 % 0.0 mm 0 W/m2
03:45 17.4 °C 17.1 °C 1013.8 hPa SW 3.2 km/h 6.4 km/h 98 % 0.0 mm 0 W/m2
03:50 17.4 °C 17.1 °C 1013.8 hPa SW 3.2 km/h 6.4 km/h 98 % 0.0 mm 0 W/m2
03:55 17.4 °C 17.1 °C 1013.8 hPa Calm   6.4 km/h 98 % 0.0 mm 0 W/m2
04:00 17.5 °C 17.2 °C 1013.8 hPa Calm   3.2 km/h 98 % 0.0 mm 0 W/m2
04:05 17.5 °C 17.2 °C 1013.8 hPa Calm   1.6 km/h 98 % 0.0 mm 0 W/m2
04:10 17.5 °C 17.2 °C 1013.8 hPa Calm   1.6 km/h 98 % 0.0 mm 0 W/m2
04:15 17.5 °C 17.2 °C 1013.8 hPa SW 3.2 km/h 3.2 km/h 98 % 0.0 mm 0 W/m2
04:20 17.4 °C 17.1 °C 1013.8 hPa SW 1.6 km/h 6.4 km/h 98 % 0.0 mm 0 W/m2
04:25 17.4 °C 17.1 °C 1013.4 hPa Calm   6.4 km/h 98 % 0.0 mm 0 W/m2
04:30 17.4 °C 17.1 °C 1013.8 hPa SW 1.6 km/h 4.8 km/h 98 % 0.0 mm 0 W/m2
04:35 17.5 °C 17.2 °C 1013.8 hPa Calm   8.0 km/h 98 % 0.0 mm 0 W/m2
04:40 17.4 °C 17.1 °C 1013.8 hPa West 1.6 km/h 8.0 km/h 98 % 0.0 mm 0 W/m2
04:45 17.3 °C 17.0 °C 1013.8 hPa WSW 3.2 km/h 8.0 km/h 98 % 0.0 mm 0 W/m2
04:50 17.3 °C 17.0 °C 1013.8 hPa Calm   9.7 km/h 98 % 0.0 mm 0 W/m2
04:55 17.2 °C 16.8 °C 1013.8 hPa SSW 1.6 km/h 9.7 km/h 98 % 0.0 mm 0 W/m2
05:00 17.2 °C 16.9 °C 1013.8 hPa SSW 1.6 km/h 4.8 km/h 98 % 0.0 mm 0 W/m2
05:05 17.3 °C 17.0 °C 1013.8 hPa SSW 3.2 km/h 6.4 km/h 98 % 0.0 mm 0 W/m2
05:10 17.3 °C 17.0 °C 1013.8 hPa Calm   6.4 km/h 98 % 0.0 mm 0 W/m2
05:15 17.3 °C 17.0 °C 1013.8 hPa Calm   4.8 km/h 98 % 0.0 mm 0 W/m2
05:20 17.4 °C 17.1 °C 1013.8 hPa SSW 4.8 km/h 4.8 km/h 98 % 0.0 mm 0 W/m2
05:25 17.4 °C 17.1 °C 1013.8 hPa SSW 1.6 km/h 4.8 km/h 98 % 0.0 mm 0 W/m2
05:30 17.4 °C 17.1 °C 1013.8 hPa Calm   8.0 km/h 98 % 0.0 mm 0 W/m2
05:35 17.4 °C 17.1 °C 1013.8 hPa Calm   8.0 km/h 98 % 0.0 mm 0 W/m2
05:40 17.4 °C 17.0 °C 1013.8 hPa WSW 1.6 km/h 6.4 km/h 97 % 0.0 mm 0 W/m2
05:50 17.3 °C 16.9 °C 1013.8 hPa West 1.6 km/h 9.7 km/h 97 % 0.0 mm 0 W/m2
05:55 17.3 °C 16.9 °C 1013.8 hPa Calm   9.7 km/h 97 % 0.0 mm 0 W/m2
06:00 17.4 °C 16.9 °C 1013.8 hPa West 3.2 km/h 4.8 km/h 97 % 0.0 mm 0 W/m2
06:10 17.4 °C 17.0 °C 1013.8 hPa Calm   8.0 km/h 97 % 0.0 mm 0 W/m2
06:15 17.5 °C 17.0 °C 1013.8 hPa WSW 4.8 km/h 8.0 km/h 97 % 0.0 mm 0 W/m2
06:20 17.6 °C 17.1 °C 1013.8 hPa WSW 3.2 km/h 4.8 km/h 97 % 0.0 mm 0 W/m2
06:25 17.6 °C 17.1 °C 1013.8 hPa Calm   6.4 km/h 97 % 0.0 mm 0 W/m2
06:30 17.7 °C 17.2 °C 1013.8 hPa WSW 1.6 km/h 6.4 km/h 97 % 0.0 mm 5 W/m2
06:35 17.7 °C 17.2 °C 1013.8 hPa Calm   9.7 km/h 97 % 0.0 mm 9 W/m2
06:40 17.7 °C 17.2 °C 1013.8 hPa Calm   9.7 km/h 97 % 0.0 mm 11 W/m2
06:45 17.7 °C 17.2 °C 1014.1 hPa WSW 1.6 km/h 8.0 km/h 97 % 0.0 mm 12 W/m2
06:50 17.8 °C 17.1 °C 1014.1 hPa Calm   8.0 km/h 96 % 0.0 mm 16 W/m2
06:55 17.8 °C 17.1 °C 1014.1 hPa WSW 6.4 km/h 8.0 km/h 96 % 0.0 mm 19 W/m2
07:00 17.8 °C 17.1 °C 1014.1 hPa West 4.8 km/h 9.7 km/h 96 % 0.0 mm 25 W/m2
07:05 17.7 °C 17.0 °C 1014.1 hPa West 3.2 km/h 11.3 km/h 96 % 0.0 mm 30 W/m2
07:10 17.7 °C 17.0 °C 1014.1 hPa WSW 4.8 km/h 11.3 km/h 96 % 0.0 mm 30 W/m2
07:15 17.7 °C 16.9 °C 1014.1 hPa West 1.6 km/h 9.7 km/h 95 % 0.0 mm 42 W/m2
07:20 17.7 °C 16.9 °C 1014.1 hPa West 6.4 km/h 9.7 km/h 95 % 0.0 mm 39 W/m2
07:25 17.7 °C 16.9 °C 1014.1 hPa Calm   9.7 km/h 95 % 0.0 mm 39 W/m2
07:30 17.8 °C 17.0 °C 1014.1 hPa Calm   6.4 km/h 95 % 0.0 mm 53 W/m2
07:35 17.7 °C 16.9 °C 1014.1 hPa SW 1.6 km/h 6.4 km/h 95 % 0.0 mm 53 W/m2
07:40 17.7 °C 16.7 °C 1014.1 hPa Calm   6.4 km/h 94 % 0.0 mm 84 W/m2
07:45 17.9 °C 16.9 °C 1014.1 hPa Calm   6.4 km/h 94 % 0.0 mm 88 W/m2
07:50 17.9 °C 17.0 °C 1014.1 hPa West 4.8 km/h 11.3 km/h 94 % 0.0 mm 91 W/m2
07:55 17.9 °C 16.8 °C 1014.1 hPa Calm   11.3 km/h 93 % 0.0 mm 90 W/m2
08:00 18.0 °C 16.9 °C 1014.1 hPa SSW 8.0 km/h 8.0 km/h 93 % 0.0 mm 88 W/m2
08:05 18.1 °C 16.9 °C 1014.1 hPa Calm   8.0 km/h 93 % 0.0 mm 116 W/m2
08:10 18.2 °C 17.0 °C 1014.1 hPa SSW 3.2 km/h 8.0 km/h 93 % 0.0 mm 123 W/m2
08:15 18.3 °C 17.0 °C 1014.4 hPa Calm   8.0 km/h 92 % 0.0 mm 118 W/m2
08:20 18.4 °C 17.1 °C 1014.4 hPa SW 4.8 km/h 9.7 km/h 92 % 0.0 mm 137 W/m2
08:25 18.4 °C 17.1 °C 1014.4 hPa SW 3.2 km/h 9.7 km/h 92 % 0.0 mm 134 W/m2
08:30 18.6 °C 17.2 °C 1014.4 hPa SW 1.6 km/h 6.4 km/h 92 % 0.0 mm 142 W/m2
08:35 18.7 °C 17.2 °C 1014.4 hPa South 6.4 km/h 14.5 km/h 91 % 0.0 mm 163 W/m2
08:40 18.8 °C 17.3 °C 1014.4 hPa Calm   14.5 km/h 91 % 0.0 mm 148 W/m2
08:45 18.9 °C 17.3 °C 1014.4 hPa West 3.2 km/h 8.0 km/h 90 % 0.0 mm 134 W/m2
08:50 18.7 °C 17.0 °C 1014.4 hPa SW 3.2 km/h 9.7 km/h 90 % 0.0 mm 165 W/m2
08:55 18.7 °C 17.2 °C 1014.4 hPa SW 4.8 km/h 9.7 km/h 91 % 0.0 mm 237 W/m2
09:00 18.8 °C 17.1 °C 1014.4 hPa West 1.6 km/h 8.0 km/h 90 % 0.0 mm 202 W/m2
09:05 19.0 °C 17.3 °C 1014.4 hPa SW 3.2 km/h 6.4 km/h 90 % 0.0 mm 227 W/m2
09:10 19.0 °C 17.1 °C 1014.8 hPa South 6.4 km/h 9.7 km/h 89 % 0.0 mm 167 W/m2
09:15 18.9 °C 17.1 °C 1014.8 hPa Calm   9.7 km/h 89 % 0.0 mm 188 W/m2
09:20 18.7 °C 17.0 °C 1014.8 hPa South 4.8 km/h 9.7 km/h 90 % 0.0 mm 237 W/m2
09:25 19.1 °C 17.4 °C 1014.4 hPa SE 3.2 km/h 8.0 km/h 90 % 0.0 mm 334 W/m2
09:30 19.4 °C 17.6 °C 1014.4 hPa South 4.8 km/h 12.9 km/h 89 % 0.0 mm 473 W/m2
09:35 19.7 °C 17.7 °C 1014.4 hPa South 8.0 km/h 12.9 km/h 88 % 0.0 mm 461 W/m2
09:40 19.7 °C 17.4 °C 1014.4 hPa Calm   9.7 km/h 87 % 0.0 mm 399 W/m2
09:45 19.7 °C 17.3 °C 1014.4 hPa Calm   11.3 km/h 86 % 0.0 mm 610 W/m2
09:50 19.7 °C 17.5 °C 1014.4 hPa SW 4.8 km/h 11.3 km/h 87 % 0.0 mm 520 W/m2
09:55 19.9 °C 17.7 °C 1014.4 hPa West 1.6 km/h 8.0 km/h 87 % 0.0 mm 510 W/m2
10:00 20.6 °C 17.8 °C 1014.4 hPa South 1.6 km/h 8.0 km/h 84 % 0.0 mm 522 W/m2
10:05 20.5 °C 17.7 °C 1014.4 hPa SSE 9.7 km/h 9.7 km/h 84 % 0.0 mm 527 W/m2
10:10 20.4 °C 17.6 °C 1014.4 hPa WSW 4.8 km/h 9.7 km/h 84 % 0.0 mm 547 W/m2
10:15 20.6 °C 17.8 °C 1014.4 hPa WSW 3.2 km/h 9.7 km/h 84 % 0.0 mm 555 W/m2
10:20 20.6 °C 18.0 °C 1014.4 hPa SSW 1.6 km/h 9.7 km/h 85 % 0.0 mm 561 W/m2
10:25 20.8 °C 17.8 °C 1014.4 hPa South 4.8 km/h 8.0 km/h 83 % 0.0 mm 580 W/m2
10:30 20.9 °C 17.9 °C 1014.4 hPa SW 4.8 km/h 8.0 km/h 83 % 0.0 mm 591 W/m2
10:35 21.1 °C 18.1 °C 1014.4 hPa West 1.6 km/h 6.4 km/h 83 % 0.0 mm 601 W/m2
10:40 21.1 °C 17.9 °C 1014.4 hPa WSW 1.6 km/h 11.3 km/h 82 % 0.0 mm 613 W/m2
10:45 21.4 °C 18.2 °C 1014.4 hPa Calm   11.3 km/h 82 % 0.0 mm 638 W/m2
10:50 21.6 °C 18.4 °C 1014.4 hPa Calm   11.3 km/h 82 % 0.0 mm 650 W/m2
10:55 21.7 °C 18.1 °C 1014.8 hPa WSW 3.2 km/h 11.3 km/h 80 % 0.0 mm 659 W/m2
11:00 22.1 °C 18.6 °C 1014.8 hPa WSW 6.4 km/h 9.7 km/h 81 % 0.0 mm 668 W/m2
11:05 22.3 °C 18.5 °C 1014.4 hPa WSW 6.4 km/h 11.3 km/h 79 % 0.0 mm 675 W/m2
11:10 22.2 °C 18.6 °C 1014.8 hPa NW 3.2 km/h 11.3 km/h 80 % 0.0 mm 686 W/m2
11:15 22.1 °C 18.0 °C 1014.8 hPa WNW 6.4 km/h 12.9 km/h 78 % 0.0 mm 694 W/m2
11:20 21.8 °C 18.2 °C 1014.8 hPa WNW 12.9 km/h 12.9 km/h 80 % 0.0 mm 707 W/m2
11:25 22.0 °C 18.4 °C 1014.8 hPa WNW 3.2 km/h 12.9 km/h 80 % 0.0 mm 717 W/m2
11:30 22.3 °C 18.3 °C 1014.8 hPa West 12.9 km/h 12.9 km/h 78 % 0.0 mm 726 W/m2
11:35 22.1 °C 18.2 °C 1014.8 hPa WNW 8.0 km/h 14.5 km/h 79 % 0.0 mm 738 W/m2
11:40 22.2 °C 18.6 °C 1014.8 hPa WNW 6.4 km/h 16.1 km/h 80 % 0.0 mm 749 W/m2
11:45 22.5 °C 18.5 °C 1014.8 hPa NW 8.0 km/h 16.1 km/h 78 % 0.0 mm 765 W/m2
11:50 22.3 °C 18.5 °C 1014.8 hPa West 9.7 km/h 17.7 km/h 79 % 0.0 mm 772 W/m2
11:55 22.3 °C 18.5 °C 1014.8 hPa West 6.4 km/h 17.7 km/h 79 % 0.0 mm 782 W/m2
12:00 22.4 °C 18.4 °C 1014.8 hPa West 6.4 km/h 17.7 km/h 78 % 0.0 mm 793 W/m2
12:05 22.3 °C 19.1 °C 1014.8 hPa NW 8.0 km/h 16.1 km/h 82 % 0.0 mm 807 W/m2
12:10 21.9 °C 18.3 °C 1014.8 hPa West 1.6 km/h 16.1 km/h 80 % 0.0 mm 812 W/m2
12:15 21.9 °C 18.7 °C 1014.8 hPa West 9.7 km/h 16.1 km/h 82 % 0.0 mm 823 W/m2
12:20 22.2 °C 18.6 °C 1015.1 hPa West 8.0 km/h 16.1 km/h 80 % 0.0 mm 828 W/m2
12:25 22.5 °C 18.7 °C 1015.1 hPa West 11.3 km/h 14.5 km/h 79 % 0.0 mm 838 W/m2
12:30 22.6 °C 18.7 °C 1015.1 hPa West 3.2 km/h 16.1 km/h 79 % 0.0 mm 844 W/m2
12:35 22.9 °C 18.7 °C 1014.8 hPa WNW 9.7 km/h 16.1 km/h 77 % 0.0 mm 849 W/m2
12:40 22.3 °C 18.3 °C 1015.1 hPa WNW 12.9 km/h 16.1 km/h 78 % 0.0 mm 858 W/m2
12:45 22.5 °C 18.3 °C 1014.8 hPa West 4.8 km/h 16.1 km/h 77 % 0.0 mm 868 W/m2
12:50 22.6 °C 18.3 °C 1014.8 hPa Calm   17.7 km/h 77 % 0.0 mm 870 W/m2
12:55 23.0 °C 19.0 °C 1014.8 hPa WNW 4.8 km/h 17.7 km/h 78 % 0.0 mm 875 W/m2
13:00 23.1 °C 18.6 °C 1014.8 hPa WNW 8.0 km/h 14.5 km/h 76 % 0.0 mm 879 W/m2
13:05 22.8 °C 18.8 °C 1014.8 hPa West 8.0 km/h 14.5 km/h 78 % 0.0 mm 879 W/m2
13:15 22.8 °C 18.6 °C 1015.1 hPa West 4.8 km/h 16.1 km/h 77 % 0.0 mm 881 W/m2
13:20 22.6 °C 18.3 °C 1015.1 hPa SW 4.8 km/h 16.1 km/h 77 % 0.0 mm 882 W/m2
13:25 22.9 °C 18.6 °C 1015.1 hPa NW 8.0 km/h 16.1 km/h 77 % 0.0 mm 886 W/m2
13:35 22.3 °C 17.9 °C 1014.8 hPa WSW 12.9 km/h 19.3 km/h 76 % 0.0 mm 888 W/m2
13:40 23.0 °C 19.2 °C 1014.8 hPa West 3.2 km/h 19.3 km/h 79 % 0.0 mm 891 W/m2
13:45 23.6 °C 19.1 °C 1014.8 hPa WNW 3.2 km/h 16.1 km/h 76 % 0.0 mm 891 W/m2
13:55 22.5 °C 18.1 °C 1014.8 hPa WSW 11.3 km/h 17.7 km/h 76 % 0.0 mm 893 W/m2
14:00 22.5 °C 18.5 °C 1014.8 hPa SSW 3.2 km/h 17.7 km/h 78 % 0.0 mm 891 W/m2
14:05 23.4 °C 19.0 °C 1014.8 hPa WNW 4.8 km/h 16.1 km/h 76 % 0.0 mm 896 W/m2
14:10 23.3 °C 18.2 °C 1014.8 hPa WSW 11.3 km/h 14.5 km/h 73 % 0.0 mm 898 W/m2
14:15 23.2 °C 18.9 °C 1014.8 hPa SSW 8.0 km/h 14.5 km/h 77 % 0.0 mm 895 W/m2
14:20 23.2 °C 18.7 °C 1014.4 hPa WSW 4.8 km/h 14.5 km/h 76 % 0.0 mm 896 W/m2
14:25 23.2 °C 18.3 °C 1014.8 hPa WSW 6.4 km/h 14.5 km/h 74 % 0.0 mm 896 W/m2
14:30 22.9 °C 18.4 °C 1014.4 hPa WNW 9.7 km/h 16.1 km/h 76 % 0.0 mm 891 W/m2
14:35 23.2 °C 18.9 °C 1014.4 hPa West 6.4 km/h 16.1 km/h 77 % 0.0 mm 893 W/m2
14:40 23.4 °C 18.8 °C 1014.4 hPa WNW 12.9 km/h 16.1 km/h 75 % 0.0 mm 891 W/m2
14:45 22.9 °C 18.2 °C 1014.4 hPa WSW 4.8 km/h 14.5 km/h 75 % 0.0 mm 886 W/m2
14:50 22.9 °C 18.6 °C 1014.4 hPa NW 8.0 km/h 16.1 km/h 77 % 0.0 mm 884 W/m2
14:55 23.3 °C 18.6 °C 1014.4 hPa SW 12.9 km/h 16.1 km/h 75 % 0.0 mm 879 W/m2
15:00 23.0 °C 18.3 °C 1014.4 hPa WSW 12.9 km/h 17.7 km/h 75 % 0.0 mm 879 W/m2
15:05 22.9 °C 18.4 °C 1014.4 hPa Calm   17.7 km/h 76 % 0.0 mm 872 W/m2
15:10 23.1 °C 18.6 °C 1014.4 hPa West 11.3 km/h 16.1 km/h 76 % 0.0 mm 872 W/m2
15:15 23.7 °C 19.0 °C 1014.4 hPa West 8.0 km/h 19.3 km/h 75 % 0.0 mm 867 W/m2
15:20 23.3 °C 18.7 °C 1014.4 hPa WSW 11.3 km/h 19.3 km/h 75 % 0.0 mm 861 W/m2
15:25 23.2 °C 18.5 °C 1014.4 hPa West 4.8 km/h 17.7 km/h 75 % 0.0 mm 856 W/m2
15:30 23.3 °C 18.6 °C 1014.1 hPa WNW 1.6 km/h 16.1 km/h 75 % 0.0 mm 847 W/m2
15:35 23.6 °C 18.9 °C 1014.1 hPa West 4.8 km/h 14.5 km/h 75 % 0.0 mm 844 W/m2
15:40 23.6 °C 18.9 °C 1014.1 hPa WNW 6.4 km/h 16.1 km/h 75 % 0.0 mm 840 W/m2
15:45 23.4 °C 18.5 °C 1014.4 hPa West 8.0 km/h 17.7 km/h 74 % 0.0 mm 833 W/m2
15:50 23.6 °C 19.1 °C 1014.1 hPa NNW 6.4 km/h 17.7 km/h 76 % 0.0 mm 823 W/m2
15:55 23.5 °C 19.0 °C 1014.1 hPa WNW 11.3 km/h 14.5 km/h 76 % 0.0 mm 812 W/m2
16:00 23.5 °C 18.8 °C 1014.4 hPa West 4.8 km/h 16.1 km/h 75 % 0.0 mm 809 W/m2
16:05 23.1 °C 18.6 °C 1014.1 hPa West 9.7 km/h 16.1 km/h 76 % 0.0 mm 803 W/m2
16:15 22.9 °C 18.7 °C 1014.1 hPa West 8.0 km/h 16.1 km/h 77 % 0.0 mm 784 W/m2
16:20 23.1 °C 18.6 °C 1014.1 hPa West 8.0 km/h 12.9 km/h 76 % 0.0 mm 772 W/m2
16:25 22.9 °C 18.5 °C 1014.1 hPa West 9.7 km/h 14.5 km/h 76 % 0.0 mm 763 W/m2
16:30 22.7 °C 18.5 °C 1014.1 hPa West 11.3 km/h 14.5 km/h 77 % 0.0 mm 751 W/m2
16:35 23.2 °C 19.1 °C 1014.1 hPa West 12.9 km/h 16.1 km/h 78 % 0.0 mm 744 W/m2
16:40 23.2 °C 18.5 °C 1014.1 hPa WNW 11.3 km/h 16.1 km/h 75 % 0.0 mm 733 W/m2
16:45 23.2 °C 19.0 °C 1014.1 hPa WSW 6.4 km/h 16.1 km/h 77 % 0.0 mm 729 W/m2
16:50 22.9 °C 18.7 °C 1014.1 hPa SW 6.4 km/h 16.1 km/h 77 % 0.0 mm 717 W/m2
16:55 23.3 °C 18.7 °C 1014.1 hPa West 6.4 km/h 16.1 km/h 75 % 0.0 mm 708 W/m2
17:00 23.2 °C 18.7 °C 1014.1 hPa West 11.3 km/h 17.7 km/h 76 % 0.0 mm 703 W/m2
17:05 23.2 °C 19.0 °C 1014.1 hPa WNW 9.7 km/h 17.7 km/h 77 % 0.0 mm 689 W/m2
17:10 22.8 °C 18.4 °C 1014.1 hPa WNW 9.7 km/h 16.1 km/h 76 % 0.0 mm 680 W/m2
17:15 22.6 °C 18.4 °C 1014.1 hPa West 9.7 km/h 16.1 km/h 77 % 0.0 mm 670 W/m2
17:20 22.6 °C 18.6 °C 1014.1 hPa WSW 12.9 km/h 16.1 km/h 78 % 0.0 mm 661 W/m2
17:25 22.4 °C 18.6 °C 1014.1 hPa West 3.2 km/h 16.1 km/h 79 % 0.0 mm 649 W/m2
17:30 22.5 °C 18.5 °C 1014.1 hPa WSW 8.0 km/h 16.1 km/h 78 % 0.0 mm 635 W/m2
17:35 22.3 °C 18.9 °C 1014.1 hPa WSW 1.6 km/h 16.1 km/h 81 % 0.0 mm 622 W/m2
17:40 22.6 °C 18.5 °C 1014.1 hPa SSW 4.8 km/h 14.5 km/h 78 % 0.0 mm 613 W/m2
17:45 22.9 °C 18.8 °C 1014.1 hPa WSW 12.9 km/h 14.5 km/h 78 % 0.0 mm 599 W/m2
17:50 23.2 °C 19.1 °C 1014.1 hPa WNW 6.4 km/h 14.5 km/h 78 % 0.0 mm 587 W/m2
17:55 23.6 °C 19.5 °C 1014.1 hPa West 4.8 km/h 16.1 km/h 78 % 0.0 mm 575 W/m2
18:00 23.1 °C 18.8 °C 1014.1 hPa West 8.0 km/h 17.7 km/h 77 % 0.0 mm 563 W/m2
18:05 22.3 °C 18.5 °C 1014.1 hPa West 11.3 km/h 17.7 km/h 79 % 0.0 mm 550 W/m2
18:10 22.2 °C 18.4 °C 1014.1 hPa West 12.9 km/h 17.7 km/h 79 % 0.0 mm 531 W/m2
18:20 22.2 °C 18.8 °C 1014.1 hPa WSW 6.4 km/h 20.9 km/h 81 % 0.0 mm 494 W/m2
18:25 22.2 °C 18.4 °C 1014.1 hPa West 4.8 km/h 16.1 km/h 79 % 0.0 mm 489 W/m2
18:30 22.1 °C 18.4 °C 1014.1 hPa West 8.0 km/h 14.5 km/h 80 % 0.0 mm 482 W/m2
18:35 22.1 °C 18.4 °C 1014.1 hPa WNW 9.7 km/h 16.1 km/h 80 % 0.0 mm 461 W/m2
18:40 21.9 °C 18.3 °C 1013.8 hPa WNW 4.8 km/h 16.1 km/h 80 % 0.0 mm 450 W/m2
18:45 21.6 °C 18.6 °C 1013.8 hPa WNW 3.2 km/h 16.1 km/h 83 % 0.0 mm 434 W/m2
18:50 21.4 °C 18.4 °C 1013.8 hPa WSW 14.5 km/h 16.1 km/h 83 % 0.0 mm 420 W/m2
18:55 21.4 °C 18.4 °C 1014.1 hPa NW 8.0 km/h 17.7 km/h 83 % 0.0 mm 404 W/m2
19:00 21.4 °C 18.2 °C 1014.1 hPa WNW 3.2 km/h 17.7 km/h 82 % 0.0 mm 390 W/m2
19:05 21.8 °C 18.6 °C 1014.1 hPa West 6.4 km/h 17.7 km/h 82 % 0.0 mm 376 W/m2
19:10 21.6 °C 18.2 °C 1014.1 hPa West 8.0 km/h 20.9 km/h 81 % 0.0 mm 359 W/m2
19:15 21.3 °C 18.1 °C 1014.1 hPa NW 8.0 km/h 20.9 km/h 82 % 0.0 mm 346 W/m2
19:20 21.6 °C 18.2 °C 1014.1 hPa WSW 11.3 km/h 20.9 km/h 81 % 0.0 mm 334 W/m2
19:30 21.4 °C 18.2 °C 1014.1 hPa WNW 6.4 km/h 17.7 km/h 82 % 0.0 mm 311 W/m2
19:35 21.4 °C 18.2 °C 1014.1 hPa West 4.8 km/h 17.7 km/h 82 % 0.0 mm 297 W/m2
19:40 21.6 °C 18.2 °C 1014.1 hPa WSW 4.8 km/h 19.3 km/h 81 % 0.0 mm 269 W/m2
19:45 21.4 °C 18.2 °C 1014.1 hPa WNW 3.2 km/h 19.3 km/h 82 % 0.0 mm 243 W/m2
19:50 21.4 °C 18.0 °C 1014.1 hPa West 4.8 km/h 17.7 km/h 81 % 0.0 mm 221 W/m2
19:55 21.3 °C 17.9 °C 1014.1 hPa West 12.9 km/h 17.7 km/h 81 % 0.0 mm 204 W/m2
20:00 21.1 °C 18.1 °C 1014.1 hPa SW 4.8 km/h 17.7 km/h 83 % 0.0 mm 179 W/m2
20:05 21.1 °C 17.9 °C 1014.1 hPa WSW 9.7 km/h 16.1 km/h 82 % 0.0 mm 188 W/m2
20:10 21.0 °C 18.0 °C 1014.1 hPa WSW 4.8 km/h 16.1 km/h 83 % 0.0 mm 183 W/m2
20:15 21.0 °C 18.0 °C 1014.1 hPa NW 8.0 km/h 17.7 km/h 83 % 0.0 mm 162 W/m2
20:20 20.8 °C 18.0 °C 1014.1 hPa WSW 6.4 km/h 17.7 km/h 84 % 0.0 mm 139 W/m2
20:25 20.7 °C 18.1 °C 1014.1 hPa WSW 11.3 km/h 14.5 km/h 85 % 0.0 mm 125 W/m2
20:30 20.6 °C 17.9 °C 1014.1 hPa West 8.0 km/h 14.5 km/h 85 % 0.0 mm 111 W/m2
20:40 20.4 °C 18.0 °C 1014.1 hPa WSW 3.2 km/h 17.7 km/h 86 % 0.0 mm 56 W/m2
20:45 20.3 °C 17.9 °C 1014.1 hPa WSW 8.0 km/h 16.1 km/h 86 % 0.0 mm 42 W/m2
20:50 20.3 °C 18.1 °C 1014.1 hPa West 1.6 km/h 16.1 km/h 87 % 0.0 mm 40 W/m2
20:55 20.3 °C 18.0 °C 1014.1 hPa WSW 3.2 km/h 14.5 km/h 87 % 0.0 mm 44 W/m2
21:00 20.3 °C 18.0 °C 1014.1 hPa SW 4.8 km/h 11.3 km/h 87 % 0.0 mm 33 W/m2
21:05 20.2 °C 18.0 °C 1013.8 hPa West 3.2 km/h 9.7 km/h 87 % 0.0 mm 30 W/m2
21:10 20.2 °C 18.0 °C 1014.1 hPa West 1.6 km/h 8.0 km/h 87 % 0.0 mm 28 W/m2
21:15 20.1 °C 17.8 °C 1014.1 hPa SW 3.2 km/h 6.4 km/h 87 % 0.0 mm 26 W/m2
21:25 19.9 °C 17.8 °C 1014.1 hPa WSW 3.2 km/h 11.3 km/h 88 % 0.0 mm 21 W/m2
21:30 19.8 °C 18.0 °C 1014.1 hPa WSW 4.8 km/h 9.7 km/h 89 % 0.0 mm 19 W/m2
21:35 19.7 °C 17.9 °C 1014.1 hPa WSW 3.2 km/h 9.7 km/h 89 % 0.0 mm 18 W/m2
21:40 19.6 °C 17.9 °C 1014.1 hPa WSW 4.8 km/h 11.3 km/h 90 % 0.0 mm 14 W/m2
21:45 19.6 °C 17.9 °C 1014.1 hPa WSW 9.7 km/h 14.5 km/h 90 % 0.0 mm 12 W/m2
21:50 19.4 °C 17.8 °C 1014.1 hPa West 6.4 km/h 14.5 km/h 90 % 0.0 mm 9 W/m2
21:55 19.4 °C 17.9 °C 1014.1 hPa WSW 3.2 km/h 14.5 km/h 91 % 0.0 mm 7 W/m2
22:00 19.3 °C 17.8 °C 1014.1 hPa WNW 6.4 km/h 14.5 km/h 91 % 0.0 mm 5 W/m2
22:05 19.2 °C 17.9 °C 1014.1 hPa West 6.4 km/h 12.9 km/h 92 % 0.0 mm 0 W/m2
22:10 19.1 °C 17.7 °C 1014.1 hPa West 1.6 km/h 9.7 km/h 92 % 0.0 mm 0 W/m2
22:15 18.8 °C 17.5 °C 1014.1 hPa Calm   9.7 km/h 92 % 0.0 mm 0 W/m2
22:20 18.7 °C 17.5 °C 1014.1 hPa Calm   4.8 km/h 93 % 0.0 mm 0 W/m2
22:25 18.4 °C 17.2 °C 1014.1 hPa Calm   3.2 km/h 93 % 0.0 mm 0 W/m2
22:30 18.2 °C 17.1 °C 1014.1 hPa Calm   3.2 km/h 93 % 0.0 mm 0 W/m2
22:35 18.1 °C 17.1 °C 1014.1 hPa WSW 1.6 km/h 3.2 km/h 94 % 0.0 mm 0 W/m2
22:40 17.8 °C 16.8 °C 1014.1 hPa Calm   3.2 km/h 94 % 0.0 mm 0 W/m2
22:45 17.7 °C 16.7 °C 1014.1 hPa Calm   4.8 km/h 94 % 0.0 mm 0 W/m2
22:50 17.5 °C 16.7 °C 1014.4 hPa West 3.2 km/h 6.4 km/h 95 % 0.0 mm 0 W/m2
22:55 17.4 °C 16.6 °C 1014.4 hPa Calm   6.4 km/h 95 % 0.0 mm 0 W/m2
23:00 17.8 °C 17.2 °C 1014.4 hPa Calm   6.4 km/h 96 % 0.0 mm 0 W/m2
23:05 18.1 °C 17.2 °C 1014.4 hPa Calm   8.0 km/h 95 % 0.0 mm 0 W/m2
23:10 17.9 °C 17.1 °C 1014.4 hPa West 4.8 km/h 8.0 km/h 95 % 0.0 mm 0 W/m2
23:15 18.0 °C 17.4 °C 1014.4 hPa WSW 6.4 km/h 6.4 km/h 96 % 0.0 mm 0 W/m2
23:20 18.2 °C 17.5 °C 1014.4 hPa Calm   6.4 km/h 96 % 0.0 mm 0 W/m2
23:25 18.1 °C 17.3 °C 1014.4 hPa WSW 4.8 km/h 6.4 km/h 95 % 0.0 mm 0 W/m2
23:30 18.2 °C 17.5 °C 1014.4 hPa Calm   6.4 km/h 96 % 0.0 mm 0 W/m2
23:35 17.9 °C 17.1 °C 1014.4 hPa West 4.8 km/h 8.0 km/h 95 % 0.0 mm 0 W/m2
23:40 17.9 °C 17.2 °C 1014.4 hPa Calm   8.0 km/h 96 % 0.0 mm 0 W/m2
23:45 17.8 °C 17.2 °C 1014.4 hPa WSW 3.2 km/h 8.0 km/h 96 % 0.0 mm 0 W/m2
23:50 18.1 °C 17.6 °C 1014.4 hPa WSW 6.4 km/h 8.0 km/h 97 % 0.0 mm 0 W/m2
23:55 18.2 °C 17.6 °C 1014.4 hPa WSW 1.6 km/h 9.7 km/h 96 % 0.0 mm 0 W/m2
Avec l'autorisation de Weather Underground - 1.75 mb